Time;durP1;ratioP1;P1;durP2;ratioP2;P2;SDS_P1;SDS_P2;PMS_P1;PMS_P2;Temp;Humidity;BMP_temperature;BMP_pressure;BME280_temperature;BME280_humidity;BME280_pressure;Samples;Min_cycle;Max_cycle;Signal;HPM_P1;HPM_P2
2023/01/12 00:02:26;;;;;;;9.40;5.00;;;;;;;-6.12;67.48;101442.66;109075;1257;67191;-69
2023/01/12 00:04:54;;;;;;;10.80;5.10;;;;;;;-6.12;67.58;101449.17;109091;1257;59039;-69
2023/01/12 00:07:20;;;;;;;12.00;5.50;;;;;;;-6.11;67.70;101449.88;109086;1257;66008;-69
2023/01/12 00:09:47;;;;;;;11.60;5.40;;;;;;;-6.10;67.77;101457.59;109073;1259;58159;-69
2023/01/12 00:12:14;;;;;;;9.50;5.30;;;;;;;-6.10;67.77;101457.08;109076;1258;58072;-69
2023/01/12 00:14:41;;;;;;;11.50;5.80;;;;;;;-6.08;67.86;101455.02;109112;1257;67370;-69
2023/01/12 00:17:10;;;;;;;11.90;4.80;;;;;;;-6.07;67.90;101455.05;109085;1259;59453;-69
2023/01/12 00:19:38;;;;;;;10.10;5.20;;;;;;;-6.05;67.97;101461.74;109017;1262;66012;-70
2023/01/12 00:22:10;;;;;;;9.80;5.30;;;;;;;-6.03;68.03;101459.86;109067;1257;58139;-69
2023/01/12 00:24:42;;;;;;;12.80;5.90;;;;;;;-6.02;68.14;101459.86;109129;1257;58142;-69
2023/01/12 00:27:28;;;;;;;11.90;4.90;;;;;;;-6.01;68.24;101471.19;109074;1258;67017;-69
2023/01/12 00:29:55;;;;;;;8.40;4.90;;;;;;;-6.01;68.25;101478.91;109097;1257;60163;-69
2023/01/12 00:32:22;;;;;;;14.80;5.10;;;;;;;-6.02;68.31;101478.21;109092;1257;66146;-69
2023/01/12 00:34:50;;;;;;;11.20;5.30;;;;;;;-6.03;68.32;101476.33;109062;1257;58182;-69
2023/01/12 00:37:18;;;;;;;13.30;5.60;;;;;;;-6.02;68.38;101481.98;109065;1260;58217;-69
2023/01/12 00:39:45;;;;;;;11.50;5.30;;;;;;;-6.00;68.47;101483.70;109085;1258;67521;-69
2023/01/12 00:45:20;;;;;;;13.10;5.10;;;;;;;-5.96;68.52;101478.27;109059;1257;66348;-69
2023/01/12 00:47:49;;;;;;;9.20;5.00;;;;;;;-5.94;68.55;101476.38;109068;1257;58128;-69
2023/01/12 00:50:17;;;;;;;16.10;5.40;;;;;;;-5.94;68.57;101474.49;109100;1257;58276;-69
2023/01/12 00:52:45;;;;;;;11.80;4.80;;;;;;;-5.94;68.62;101475.70;109019;1257;66971;-69
2023/01/12 00:55:12;;;;;;;13.00;5.40;;;;;;;-5.92;68.69;101476.90;109039;1257;59439;-69
2023/01/12 00:57:45;;;;;;;9.60;4.90;;;;;;;-5.90;68.67;101473.63;109088;1257;66183;-69
2023/01/12 01:00:13;;;;;;;10.10;4.90;;;;;;;-5.88;68.61;101468.50;109081;1257;58065;-69
2023/01/12 01:02:40;;;;;;;9.90;5.30;;;;;;;-5.87;68.62;101466.45;109068;1257;58055;-69
2023/01/12 01:05:07;;;;;;;11.90;5.20;;;;;;;-5.87;68.69;101465.42;109005;1257;67301;-69
2023/01/12 01:07:37;;;;;;;13.10;4.80;;;;;;;-5.87;68.77;101466.96;109051;1258;59396;-69
2023/01/12 01:10:04;;;;;;;14.50;5.30;;;;;;;-5.88;68.83;101465.93;109059;1257;65075;-69
2023/01/12 01:12:31;;;;;;;11.90;5.00;;;;;;;-5.89;68.93;101465.91;109070;1261;58261;-69
2023/01/12 01:14:59;;;;;;;8.90;5.10;;;;;;;-5.88;68.97;101458.73;109080;1258;58115;-69
2023/01/12 01:17:27;;;;;;;11.40;4.70;;;;;;;-5.87;68.99;101455.13;109107;1257;67246;-69
2023/01/12 01:19:54;;;;;;;9.40;5.00;;;;;;;-5.87;69.08;101453.08;109084;1257;60669;-69
2023/01/12 01:22:21;;;;;;;12.60;4.60;;;;;;;-5.87;69.11;101451.88;109018;1257;66215;-69
2023/01/12 01:24:48;;;;;;;10.70;4.90;;;;;;;-5.86;69.14;101450.50;109082;1257;58206;-69
2023/01/12 01:27:15;;;;;;;11.00;5.00;;;;;;;-5.85;69.21;101444.50;109087;1257;58217;-69
2023/01/12 01:29:42;;;;;;;13.00;5.60;;;;;;;-5.84;69.25;101449.30;109092;1257;66467;-69
2023/01/12 01:32:09;;;;;;;11.00;5.10;;;;;;;-5.83;69.31;101455.99;109069;1257;60368;-69
2023/01/12 01:34:36;;;;;;;15.30;5.60;;;;;;;-5.83;69.33;101459.60;109020;1257;65015;-69
2023/01/12 01:37:03;;;;;;;16.80;6.10;;;;;;;-5.83;69.41;101460.29;109070;1257;58130;-69
2023/01/12 01:39:31;;;;;;;11.80;5.90;;;;;;;-5.82;69.45;101463.02;109024;1257;61256;-69
2023/01/12 01:41:58;;;;;;;13.50;5.80;;;;;;;-5.80;69.47;101460.63;109088;1258;66198;-69
2023/01/12 01:44:29;;;;;;;12.70;6.00;;;;;;;-5.80;69.56;101466.46;109042;1257;59379;-69
2023/01/12 01:47:09;;;;;;;11.80;5.80;;;;;;;-5.80;69.59;101470.23;109008;1257;66139;-69
2023/01/12 01:49:47;;;;;;;9.70;5.20;;;;;;;-5.80;69.62;101468.69;108988;1260;58151;-69
2023/01/12 01:52:24;;;;;;;24.30;11.40;;;;;;;-5.78;69.69;101469.41;109003;1259;58141;-69
2023/01/12 01:55:12;;;;;;;13.90;6.80;;;;;;;-5.75;69.76;101468.56;109031;1260;67396;-69
2023/01/12 01:57:56;;;;;;;11.70;5.70;;;;;;;-5.73;69.85;101462.05;109029;1259;60262;-69
2023/01/12 02:00:26;;;;;;;11.20;6.60;;;;;;;-5.74;69.95;101453.98;108888;1260;64814;-69
2023/01/12 02:02:56;;;;;;;12.10;5.90;;;;;;;-5.76;70.00;101453.98;108993;1258;58132;-69
2023/01/12 02:05:29;;;;;;;16.70;5.90;;;;;;;-5.76;70.06;101457.41;108962;1258;58240;-69
2023/01/12 02:08:07;;;;;;;13.30;5.50;;;;;;;-5.74;70.11;101453.64;109008;1260;65918;-69
2023/01/12 02:10:37;;;;;;;17.40;7.10;;;;;;;-5.71;70.18;101453.65;108996;1259;59468;-69
2023/01/12 02:16:20;;;;;;;11.10;5.40;;;;;;;-5.65;70.18;101454.54;108960;1259;58170;-69
2023/01/12 02:19:09;;;;;;;13.70;5.50;;;;;;;-5.64;70.21;101454.70;109037;1259;58114;-69
2023/01/12 02:22:00;;;;;;;13.10;5.60;;;;;;;-5.63;70.33;101455.56;108938;1260;67180;-69
2023/01/12 02:25:09;;;;;;;18.30;8.20;;;;;;;-5.62;70.27;101449.73;108898;1260;60423;-70
2023/01/12 02:28:11;;;;;;;10.70;6.30;;;;;;;-5.61;70.34;101444.77;108998;1260;64840;-69
2023/01/12 02:31:18;;;;;;;10.00;6.40;;;;;;;-5.63;70.38;101444.25;108932;1259;58132;-69
2023/01/12 02:34:31;;;;;;;13.70;5.20;;;;;;;-5.63;70.42;101437.04;109059;1259;58039;-69
2023/01/12 02:37:13;;;;;;;13.20;7.50;;;;;;;-5.62;70.53;101432.58;108913;1260;67016;-69
2023/01/12 02:39:58;;;;;;;12.00;6.30;;;;;;;-5.62;70.57;101427.42;108900;1258;60260;-69
2023/01/12 02:42:53;;;;;;;19.00;9.90;;;;;;;-5.61;70.66;101425.37;108941;1259;64711;-68
2023/01/12 02:46:20;;;;;;;13.70;6.40;;;;;;;-5.59;70.67;101427.11;109044;1260;58163;-68
2023/01/12 02:56:30;;;;;;;13.90;7.30;;;;;;;-5.55;70.65;101424.20;102885;1295;600970;-71
2023/01/12 02:59:01;;;;;;;14.80;6.90;;;;;;;-5.60;70.68;101420.92;104936;1271;59784;-71
2023/01/12 03:01:28;;;;;;;12.30;5.80;;;;;;;-5.61;70.71;101425.54;105654;1254;59928;-71
2023/01/12 03:03:55;;;;;;;11.30;4.70;;;;;;;-5.62;70.77;101422.45;105579;1261;66135;-71
2023/01/12 03:06:22;;;;;;;10.20;5.10;;;;;;;-5.63;70.75;101418.34;105446;1255;60893;-71
2023/01/12 03:08:49;;;;;;;16.20;8.30;;;;;;;-5.68;70.74;101412.16;105437;1255;84853;-71
2023/01/12 03:11:20;;;;;;;16.40;8.40;;;;;;;-5.70;70.84;101410.06;105623;1252;59337;-70
2023/01/12 03:13:57;;;;;;;12.60;5.70;;;;;;;-5.69;70.94;101409.39;105896;1256;59352;-70
2023/01/12 03:16:26;;;;;;;14.20;7.10;;;;;;;-5.71;70.96;101404.91;106864;1251;66059;-70
2023/01/12 03:18:53;;;;;;;18.30;8.50;;;;;;;-5.71;71.01;101399.95;108129;1256;59987;-70
2023/01/12 03:21:36;;;;;;;14.70;6.40;;;;;;;-5.70;71.10;101398.57;107078;1254;65484;-71
2023/01/12 03:24:14;;;;;;;12.20;6.90;;;;;;;-5.68;71.20;101398.94;105695;1257;59992;-71
2023/01/12 03:26:46;;;;;;;16.50;6.20;;;;;;;-5.68;71.20;101397.40;106062;1252;59688;-69
2023/01/12 03:29:24;;;;;;;13.20;5.50;;;;;;;-5.68;71.30;101395.86;105875;1254;66726;-71
2023/01/12 03:31:51;;;;;;;12.00;5.70;;;;;;;-5.67;71.39;101393.11;105777;1255;60985;-70
2023/01/12 03:34:18;;;;;;;13.80;5.90;;;;;;;-5.65;71.45;101394.14;105767;1257;66502;-68
2023/01/12 03:36:56;;;;;;;17.50;6.30;;;;;;;-5.61;71.50;101387.28;105512;1260;59723;-69
2023/01/12 03:40:01;;;;;;;11.50;5.80;;;;;;;-5.58;71.49;101384.39;105595;1258;62490;-69
2023/01/12 03:42:32;;;;;;;11.60;5.10;;;;;;;-5.53;71.55;101381.65;105657;1251;66986;-69
2023/01/12 03:45:14;;;;;;;13.70;5.90;;;;;;;-5.52;71.59;101374.95;105667;1251;60715;-69
2023/01/12 03:47:42;;;;;;;15.10;6.50;;;;;;;-5.52;71.69;101369.11;105548;1257;66526;-70
2023/01/12 03:50:11;;;;;;;14.20;6.20;;;;;;;-5.52;71.65;101365.00;105788;1254;59772;-70
2023/01/12 03:52:38;;;;;;;9.80;5.80;;;;;;;-5.51;71.65;101360.70;105580;1257;59577;-70
2023/01/12 03:55:07;;;;;;;13.00;6.80;;;;;;;-5.51;71.68;101360.37;105555;1252;66641;-70
2023/01/12 03:57:33;;;;;;;15.00;6.10;;;;;;;-5.50;71.75;101358.48;105992;1251;61391;-70
2023/01/12 04:00:00;;;;;;;13.50;6.10;;;;;;;-5.49;71.84;101359.19;105659;1260;66446;-70
2023/01/12 04:02:27;;;;;;;12.50;5.80;;;;;;;-5.47;71.87;101359.19;105675;1253;59773;-70
2023/01/12 04:04:54;;;;;;;14.30;6.10;;;;;;;-5.45;71.95;101360.73;105904;1257;59554;-71
2023/01/12 04:07:22;;;;;;;12.90;6.60;;;;;;;-5.43;71.96;101358.33;105797;1253;67160;-71
2023/01/12 04:09:49;;;;;;;14.60;6.70;;;;;;;-5.43;72.00;101356.61;105810;1260;60844;-71
2023/01/12 04:12:16;;;;;;;13.90;6.70;;;;;;;-5.44;72.05;101363.83;105784;1254;65423;-70
2023/01/12 04:14:44;;;;;;;14.00;6.00;;;;;;;-5.45;72.01;101360.91;105715;1254;59650;-70
2023/01/12 04:17:14;;;;;;;12.90;6.90;;;;;;;-5.46;72.04;101357.81;105842;1254;59766;-70
2023/01/12 04:19:41;;;;;;;17.30;8.60;;;;;;;-5.45;72.16;101353.70;105725;1256;66868;-70
2023/01/12 04:24:55;;;;;;;9.70;5.40;;;;;;;-5.40;72.25;101356.28;105826;1254;67169;-72
2023/01/12 04:27:22;;;;;;;10.20;5.60;;;;;;;-5.38;72.23;101355.42;105757;1257;59714;-70
2023/01/12 04:29:57;;;;;;;12.60;5.90;;;;;;;-5.36;72.22;101356.98;105854;1251;60312;-69
2023/01/12 04:32:34;;;;;;;18.60;5.80;;;;;;;-5.34;72.32;101356.63;105863;1255;63153;-69
2023/01/12 04:35:01;;;;;;;12.10;6.30;;;;;;;-5.32;72.33;101357.48;105897;1251;61135;-71
2023/01/12 04:37:30;;;;;;;12.60;6.70;;;;;;;-5.30;72.44;101359.21;105866;1251;66773;-69
2023/01/12 04:39:57;;;;;;;15.90;6.20;;;;;;;-5.29;72.42;101359.73;105983;1254;59994;-70
2023/01/12 04:45:20;;;;;;;9.70;5.10;;;;;;;-5.29;72.47;101357.34;105473;1254;65774;-70
2023/01/12 04:47:47;;;;;;;9.90;4.80;;;;;;;-5.27;72.45;101354.23;106998;1251;61170;-70
2023/01/12 04:50:14;;;;;;;13.20;6.20;;;;;;;-5.26;72.46;101348.58;105929;1251;66727;-69
2023/01/12 04:52:41;;;;;;;13.60;6.30;;;;;;;-5.25;72.45;101348.56;105876;1257;59649;-70
2023/01/12 04:55:08;;;;;;;12.70;6.50;;;;;;;-5.22;72.58;101347.55;105720;1254;61761;-70
2023/01/12 04:57:35;;;;;;;10.70;5.90;;;;;;;-5.20;72.50;101348.25;105779;1251;75054;-69
2023/01/12 05:00:04;;;;;;;9.70;6.70;;;;;;;-5.17;72.52;101344.80;105709;1251;60930;-70
2023/01/12 05:02:33;;;;;;;7.50;5.80;;;;;;;-5.16;72.47;101343.08;105590;1254;67465;-69
2023/01/12 05:05:00;;;;;;;9.60;6.10;;;;;;;-5.14;72.46;101342.23;105562;1251;59734;-69
2023/01/12 05:07:27;;;;;;;10.90;6.00;;;;;;;-5.13;72.51;101336.38;105790;1257;59634;-69
2023/01/12 05:12:40;;;;;;;11.30;5.80;;;;;;;-5.12;72.50;101331.23;105793;1251;60025;-70
2023/01/12 05:15:08;;;;;;;13.60;6.40;;;;;;;-5.11;72.48;101330.21;105747;1251;66410;-69
2023/01/12 05:17:35;;;;;;;11.90;5.90;;;;;;;-5.10;72.55;101322.66;105654;1254;59519;-70
2023/01/12 05:20:02;;;;;;;10.10;5.70;;;;;;;-5.08;72.53;101318.70;105779;1251;59762;-69
2023/01/12 05:22:30;;;;;;;15.50;5.90;;;;;;;-5.06;72.48;101320.41;105802;1251;67152;-70
2023/01/12 05:24:57;;;;;;;11.30;5.70;;;;;;;-5.05;72.45;101314.23;105940;1256;59959;-70
2023/01/12 05:27:24;;;;;;;13.80;5.80;;;;;;;-5.06;72.45;101312.86;105733;1254;66305;-69
2023/01/12 05:29:51;;;;;;;11.90;5.70;;;;;;;-5.06;72.46;101312.86;105661;1254;59673;-70
2023/01/12 05:32:18;;;;;;;14.60;5.00;;;;;;;-5.07;72.48;101309.08;105586;1257;59507;-70
2023/01/12 05:34:45;;;;;;;20.40;5.90;;;;;;;-5.09;72.49;101306.00;105856;1251;65736;-70
2023/01/12 05:37:12;;;;;;;11.70;5.60;;;;;;;-5.08;72.52;101305.83;105633;1251;60703;-70
2023/01/12 05:39:39;;;;;;;10.80;5.50;;;;;;;-5.07;72.47;101297.58;105647;1257;66450;-70
2023/01/12 05:44:54;;;;;;;11.30;5.70;;;;;;;-5.05;72.53;101297.74;105587;1257;59738;-70
2023/01/12 05:47:20;;;;;;;12.80;6.60;;;;;;;-5.03;72.51;101297.73;105837;1251;66731;-70
2023/01/12 05:49:47;;;;;;;16.10;6.60;;;;;;;-5.01;72.51;101296.55;105842;1252;60980;-70
2023/01/12 05:52:14;;;;;;;20.30;7.20;;;;;;;-5.00;72.49;101301.19;105842;1254;65392;-69
2023/01/12 05:54:41;;;;;;;13.60;6.80;;;;;;;-4.99;72.48;101300.67;105663;1257;59743;-69
2023/01/12 05:57:08;;;;;;;17.30;8.10;;;;;;;-4.98;72.53;101295.68;105781;1257;59688;-70
2023/01/12 05:59:35;;;;;;;21.20;8.60;;;;;;;-4.96;72.55;101294.64;105550;1254;66907;-70
2023/01/12 06:02:02;;;;;;;18.60;7.90;;;;;;;-4.93;72.54;101293.44;105735;1256;61246;-70
2023/01/12 06:04:29;;;;;;;14.00;7.50;;;;;;;-4.93;72.51;101292.23;105856;1256;66546;-71
2023/01/12 06:06:56;;;;;;;29.90;12.40;;;;;;;-4.92;72.58;101290.87;105800;1254;59651;-70
2023/01/12 06:09:24;;;;;;;22.30;10.60;;;;;;;-4.89;72.52;101301.34;105883;1254;60654;-70
2023/01/12 06:14:37;;;;;;;25.90;10.50;;;;;;;-4.84;72.55;101311.63;105769;1255;60619;-70
2023/01/12 06:17:04;;;;;;;16.00;9.00;;;;;;;-4.83;72.65;101313.01;105746;1254;66189;-70
2023/01/12 06:19:31;;;;;;;21.60;9.50;;;;;;;-4.81;72.56;101316.98;105815;1256;64452;-70
2023/01/12 06:21:58;;;;;;;18.50;10.10;;;;;;;-4.81;72.59;101322.64;105783;1254;59608;-70
2023/01/12 06:24:27;;;;;;;22.10;10.10;;;;;;;-4.80;72.62;101318.34;105695;1253;65792;-70
2023/01/12 06:26:54;;;;;;;20.20;10.20;;;;;;;-4.78;72.67;101317.81;105886;1253;61272;-70
2023/01/12 06:29:21;;;;;;;20.70;10.20;;;;;;;-4.76;72.64;101317.98;105639;1257;65541;-70
2023/01/12 06:31:48;;;;;;;28.40;11.50;;;;;;;-4.75;72.66;101314.02;105646;1254;59621;-70
2023/01/12 06:34:14;;;;;;;17.50;11.40;;;;;;;-4.74;72.74;101309.54;105610;1254;63371;-70
2023/01/12 06:36:41;;;;;;;24.00;12.00;;;;;;;-4.74;72.81;101312.30;105663;1254;65682;-70
2023/01/12 06:39:10;;;;;;;19.00;10.30;;;;;;;-4.73;72.79;101312.48;105632;1254;60498;-70
2023/01/12 06:44:23;;;;;;;20.00;11.20;;;;;;;-4.74;72.84;101305.08;105694;1254;59820;-70
2023/01/12 06:46:50;;;;;;;17.90;10.00;;;;;;;-4.74;72.82;101306.98;105641;1253;59617;-70
2023/01/12 06:49:17;;;;;;;21.00;11.80;;;;;;;-4.74;72.72;101313.68;105564;1257;66844;-70
2023/01/12 06:51:47;;;;;;;18.90;11.70;;;;;;;-4.73;72.68;101312.15;105583;1258;59883;-70
2023/01/12 06:54:14;;;;;;;26.30;17.40;;;;;;;-4.71;72.73;101312.66;105670;1251;65929;-70
2023/01/12 06:56:44;;;;;;;20.90;14.00;;;;;;;-4.70;72.76;101318.66;105702;1260;59736;-70
2023/01/12 06:59:11;;;;;;;20.90;11.60;;;;;;;-4.68;72.77;101323.29;105726;1251;59627;-70
2023/01/12 07:01:39;;;;;;;18.50;10.10;;;;;;;-4.66;72.68;101327.23;105630;1255;66843;-70
2023/01/12 07:04:06;;;;;;;20.40;10.40;;;;;;;-4.65;72.66;101332.05;105873;1251;61131;-70
2023/01/12 07:06:33;;;;;;;26.30;15.00;;;;;;;-4.63;72.65;101338.25;105724;1255;64323;-70
2023/01/12 07:09:01;;;;;;;23.80;11.30;;;;;;;-4.62;72.64;101339.61;105623;1254;60569;-71
2023/01/12 07:11:28;;;;;;;21.50;10.60;;;;;;;-4.62;72.53;101335.49;105682;1257;60440;-69
2023/01/12 07:13:55;;;;;;;28.30;11.20;;;;;;;-4.64;72.52;101336.68;105953;1252;66484;-70
2023/01/12 07:16:22;;;;;;;25.90;10.50;;;;;;;-4.65;72.58;101340.29;105742;1251;61231;-69
2023/01/12 07:18:49;;;;;;;20.20;9.70;;;;;;;-4.64;72.45;101344.08;105955;1252;66285;-69
2023/01/12 07:21:17;;;;;;;19.30;11.30;;;;;;;-4.63;72.52;101346.15;105961;1251;60415;-69
2023/01/12 07:23:44;;;;;;;18.20;10.50;;;;;;;-4.64;72.41;101347.69;105964;1251;60487;-69
2023/01/12 07:26:11;;;;;;;21.70;11.80;;;;;;;-4.67;72.39;101345.63;105934;1252;66553;-69
2023/01/12 07:28:38;;;;;;;22.10;10.70;;;;;;;-4.68;72.40;101343.57;105867;1257;60310;-69
2023/01/12 07:31:05;;;;;;;18.50;10.20;;;;;;;-4.67;72.37;101345.45;105834;1254;66287;-69
2023/01/12 07:33:33;;;;;;;22.20;10.20;;;;;;;-4.67;72.32;101348.89;105915;1254;60453;-69
2023/01/12 07:36:00;;;;;;;25.30;11.30;;;;;;;-4.67;72.38;101346.83;105763;1254;60384;-69
2023/01/12 07:38:28;;;;;;;22.30;11.70;;;;;;;-4.66;72.36;101346.48;105870;1254;66356;-70
2023/01/12 07:40:59;;;;;;;23.90;11.00;;;;;;;-4.66;72.29;101342.36;105860;1251;60883;-69
2023/01/12 07:43:26;;;;;;;21.60;11.30;;;;;;;-4.67;72.30;101334.45;105732;1256;65725;-69
2023/01/12 07:45:57;;;;;;;21.80;12.20;;;;;;;-4.67;72.28;101330.85;105880;1254;60440;-69
2023/01/12 07:48:25;;;;;;;23.40;12.50;;;;;;;-4.67;72.21;101332.91;105781;1251;60622;-70
2023/01/12 07:50:52;;;;;;;26.50;12.30;;;;;;;-4.66;72.28;101334.80;105672;1251;66671;-70
2023/01/12 07:53:19;;;;;;;22.10;11.20;;;;;;;-4.64;72.20;101334.96;105836;1257;60443;-70
2023/01/12 07:55:46;;;;;;;22.40;11.10;;;;;;;-4.68;72.09;101330.85;105839;1256;66437;-69
2023/01/12 07:58:13;;;;;;;20.90;11.00;;;;;;;-4.71;71.98;101338.61;105676;1254;60452;-68
2023/01/12 08:00:40;;;;;;;18.70;10.80;;;;;;;-4.73;71.97;101339.63;105663;1253;60501;-70
2023/01/12 08:03:09;;;;;;;18.60;10.80;;;;;;;-4.74;71.93;101337.55;105894;1252;66486;-70
2023/01/12 08:05:36;;;;;;;24.80;11.40;;;;;;;-4.75;71.97;101335.32;105937;1257;61012;-70
2023/01/12 08:08:04;;;;;;;26.30;11.10;;;;;;;-4.74;72.03;101333.27;105979;1254;66738;-70
2023/01/12 08:10:31;;;;;;;25.90;13.30;;;;;;;-4.72;71.98;101330.36;105650;1257;60981;-70
2023/01/12 08:12:58;;;;;;;25.40;12.90;;;;;;;-4.70;72.04;101325.36;105841;1251;60533;-69
2023/01/12 08:15:25;;;;;;;26.30;13.60;;;;;;;-4.66;71.98;101325.35;105833;1252;68109;-69
2023/01/12 08:17:56;;;;;;;26.80;13.30;;;;;;;-4.64;71.91;101322.59;105689;1251;60932;-69
2023/01/12 08:20:26;;;;;;;26.70;12.10;;;;;;;-4.63;71.91;101317.27;105965;1254;66416;-70
2023/01/12 08:22:54;;;;;;;18.90;10.40;;;;;;;-4.61;71.89;101321.56;105888;1254;60486;-69
2023/01/12 08:25:26;;;;;;;16.50;9.40;;;;;;;-4.58;71.73;101326.89;105916;1253;62804;-70
2023/01/12 08:27:55;;;;;;;19.70;10.00;;;;;;;-4.59;71.58;101326.71;105791;1253;67707;-70
2023/01/12 08:30:22;;;;;;;19.90;9.40;;;;;;;-4.60;71.45;101327.41;105751;1251;61014;-70
2023/01/12 08:32:49;;;;;;;20.00;8.60;;;;;;;-4.60;71.30;101333.42;105975;1253;66333;-70
2023/01/12 08:35:19;;;;;;;19.00;7.80;;;;;;;-4.62;71.08;101330.85;105863;1257;60527;-70
2023/01/12 08:37:46;;;;;;;16.70;8.80;;;;;;;-4.65;70.96;101331.35;105764;1253;60621;-70
2023/01/12 08:40:13;;;;;;;20.80;8.70;;;;;;;-4.68;70.94;101327.59;105810;1251;66609;-70
2023/01/12 08:42:39;;;;;;;16.20;8.80;;;;;;;-4.69;70.95;101321.58;105688;1251;60515;-70
2023/01/12 08:45:07;;;;;;;18.70;9.70;;;;;;;-4.67;70.89;101323.46;105872;1257;65650;-70
2023/01/12 08:47:34;;;;;;;19.80;9.30;;;;;;;-4.64;70.93;101320.36;105909;1256;63870;-70
2023/01/12 08:50:01;;;;;;;15.30;9.00;;;;;;;-4.61;70.75;101313.31;105805;1251;60419;-69
2023/01/12 08:52:30;;;;;;;15.90;9.30;;;;;;;-4.58;70.78;101309.02;105831;1255;67360;-70
2023/01/12 08:54:57;;;;;;;20.70;10.80;;;;;;;-4.59;70.70;101304.37;105782;1254;60521;-70
2023/01/12 08:57:24;;;;;;;22.20;10.20;;;;;;;-4.60;70.68;101305.23;105787;1254;66275;-70
2023/01/12 08:59:51;;;;;;;19.80;10.00;;;;;;;-4.58;70.60;101307.13;105726;1253;60419;-70
2023/01/12 09:02:18;;;;;;;27.10;10.50;;;;;;;-4.58;70.62;101306.77;105818;1251;61054;-70
2023/01/12 09:04:44;;;;;;;20.50;9.50;;;;;;;-4.57;70.68;101307.80;105722;1256;67725;-70
2023/01/12 09:07:11;;;;;;;21.70;9.20;;;;;;;-4.56;70.70;101307.28;105806;1253;61148;-70
2023/01/12 09:09:38;;;;;;;20.00;9.80;;;;;;;-4.53;70.60;101304.19;105858;1254;66604;-70
2023/01/12 09:12:06;;;;;;;19.60;9.10;;;;;;;-4.50;70.58;101303.31;105853;1253;60523;-70
2023/01/12 09:14:39;;;;;;;19.90;9.50;;;;;;;-4.46;70.61;101297.63;105734;1253;60406;-70
2023/01/12 09:17:05;;;;;;;18.80;9.20;;;;;;;-4.43;70.52;101301.41;105919;1252;67423;-70
2023/01/12 09:19:33;;;;;;;21.80;9.70;;;;;;;-4.41;70.55;101304.16;105815;1251;60344;-70
2023/01/12 09:21:59;;;;;;;18.50;9.10;;;;;;;-4.39;70.55;101305.00;105772;1251;66548;-70
2023/01/12 09:24:26;;;;;;;17.20;9.20;;;;;;;-4.37;70.42;101298.97;105855;1254;60431;-70
2023/01/12 09:26:53;;;;;;;19.40;9.50;;;;;;;-4.37;70.28;101291.05;105876;1257;60430;-70
2023/01/12 09:29:20;;;;;;;22.80;10.40;;;;;;;-4.38;70.35;101282.30;105762;1251;66395;-70
2023/01/12 09:31:47;;;;;;;18.70;9.40;;;;;;;-4.36;70.34;101276.79;105952;1256;60465;-70
2023/01/12 09:34:14;;;;;;;26.10;11.10;;;;;;;-4.33;70.29;101271.63;105736;1254;66556;-70
2023/01/12 09:36:41;;;;;;;27.80;10.70;;;;;;;-4.34;70.07;101269.91;105894;1253;60549;-70
2023/01/12 09:39:09;;;;;;;23.50;11.20;;;;;;;-4.35;69.90;101263.54;105911;1251;60515;-70
2023/01/12 09:47:35;;;;;;;27.90;15.30;;;;;;;-4.33;69.68;101265.27;105778;1254;66267;-70
2023/01/12 09:50:08;;;;;;;23.20;13.50;;;;;;;-4.32;69.69;101267.16;105714;1254;60547;-71
2023/01/12 09:52:49;;;;;;;20.20;11.70;;;;;;;-4.28;69.80;101266.45;105727;1251;60537;-68
2023/01/12 09:55:19;;;;;;;27.40;13.40;;;;;;;-4.24;69.78;101259.21;105916;1253;67716;-68
2023/01/12 09:58:04;;;;;;;18.30;11.50;;;;;;;-4.20;69.73;101258.49;105754;1257;60918;-68
2023/01/12 10:00:31;;;;;;;20.30;10.20;;;;;;;-4.17;69.62;101260.37;105737;1252;66346;-68
2023/01/12 10:03:26;;;;;;;21.50;9.90;;;;;;;-4.18;69.44;101262.27;105678;1255;60548;-69
2023/01/12 10:05:56;;;;;;;22.50;11.50;;;;;;;-4.20;69.27;101253.86;105671;1254;60538;-69
2023/01/12 10:08:27;;;;;;;16.20;9.60;;;;;;;-4.20;69.27;101249.55;108203;1251;67658;-70
2023/01/12 10:11:07;;;;;;;22.00;10.90;;;;;;;-4.21;69.19;101251.97;107988;1253;60859;-70
2023/01/12 10:13:49;;;;;;;20.70;9.90;;;;;;;-4.20;69.13;101254.21;105695;1254;66477;-70
2023/01/12 10:16:52;;;;;;;16.00;9.30;;;;;;;-4.19;69.13;101255.74;105959;1257;60463;-73
2023/01/12 10:19:41;;;;;;;20.70;9.30;;;;;;;-4.21;69.03;101262.13;105572;1254;60656;-72
2023/01/12 10:22:35;;;;;;;22.10;9.30;;;;;;;-4.23;69.00;101269.88;105743;1251;66571;-69
2023/01/12 10:25:17;;;;;;;19.00;10.30;;;;;;;-4.23;68.96;101272.80;105766;1251;60786;-70
2023/01/12 10:27:46;;;;;;;25.20;10.60;;;;;;;-4.22;68.94;101275.37;105841;1254;65438;-70
2023/01/12 10:30:40;;;;;;;21.20;11.00;;;;;;;-4.23;68.94;101276.75;105907;1256;60513;-70
2023/01/12 10:33:08;;;;;;;24.30;11.80;;;;;;;-4.22;69.00;101275.02;105808;1251;60596;-70
2023/01/12 10:35:35;;;;;;;21.20;11.60;;;;;;;-4.21;68.99;101272.95;105684;1257;67538;-70
2023/01/12 10:38:02;;;;;;;26.50;11.70;;;;;;;-4.24;68.93;101269.52;105768;1251;60994;-70
2023/01/12 10:40:30;;;;;;;22.40;10.70;;;;;;;-4.28;68.92;101270.91;105491;1257;65665;-71
2023/01/12 10:43:30;;;;;;;30.10;11.10;;;;;;;-4.29;69.01;101268.34;105815;1251;60426;-71
2023/01/12 10:46:01;;;;;;;24.60;12.10;;;;;;;-4.28;69.00;101273.66;105676;1251;60549;-71
2023/01/12 10:48:29;;;;;;;30.20;12.00;;;;;;;-4.26;69.09;101274.85;105809;1251;67587;-71
2023/01/12 10:50:58;;;;;;;28.10;10.30;;;;;;;-4.25;69.06;101273.30;105787;1252;61262;-71
2023/01/12 10:53:28;;;;;;;26.90;11.10;;;;;;;-4.24;68.94;101264.20;105875;1251;66789;-71
2023/01/12 10:55:55;;;;;;;27.40;9.80;;;;;;;-4.25;68.92;101253.52;105617;1254;60532;-72
2023/01/12 10:58:28;;;;;;;20.10;8.80;;;;;;;-4.24;68.88;101244.23;105681;1257;60688;-71
2023/01/12 11:00:55;;;;;;;20.50;9.20;;;;;;;-4.22;68.94;101247.68;105717;1256;66936;-72
2023/01/12 11:03:48;;;;;;;24.60;9.40;;;;;;;-4.21;68.82;101246.98;105647;1251;60631;-71
2023/01/12 11:06:29;;;;;;;20.70;10.10;;;;;;;-4.20;68.73;101247.33;105616;1251;66537;-71
2023/01/12 11:08:56;;;;;;;26.10;12.90;;;;;;;-4.18;68.64;101244.90;105868;1252;60563;-72
2023/01/12 11:11:30;;;;;;;25.70;12.00;;;;;;;-4.17;68.46;101235.77;105635;1251;60431;-72
2023/01/12 11:13:59;;;;;;;21.40;11.00;;;;;;;-4.15;68.46;101231.65;105761;1251;66429;-71
2023/01/12 11:16:31;;;;;;;30.80;11.20;;;;;;;-4.11;68.53;101232.66;105787;1251;60628;-71
2023/01/12 11:19:17;;;;;;;25.80;9.50;;;;;;;-4.04;68.53;101231.06;105808;1251;66729;-71
2023/01/12 11:21:53;;;;;;;28.70;11.00;;;;;;;-3.96;68.52;101233.09;105856;1251;60502;-71
2023/01/12 11:24:41;;;;;;;32.70;10.80;;;;;;;-3.90;68.40;101230.29;105967;1250;60523;-71
2023/01/12 11:27:21;;;;;;;21.00;10.30;;;;;;;-3.84;68.30;101228.19;105723;1251;67777;-70
2023/01/12 11:29:59;;;;;;;28.60;11.30;;;;;;;-3.80;68.14;101222.83;105735;1251;60779;-71
2023/01/12 11:32:31;;;;;;;28.60;11.40;;;;;;;-3.80;67.86;101219.04;105746;1252;66810;-69
2023/01/12 11:35:30;;;;;;;24.90;10.60;;;;;;;-3.79;67.78;101216.09;105562;1257;60459;-69
2023/01/12 11:38:00;;;;;;;29.10;12.50;;;;;;;-3.80;67.51;101217.65;105691;1257;60323;-70
2023/01/12 11:40:31;;;;;;;46.90;19.20;;;;;;;-3.82;67.43;101224.56;105891;1256;67371;-69
2023/01/12 11:46:26;;;;;;;28.30;12.90;;;;;;;-3.80;67.39;101237.28;105904;1253;66380;-69
2023/01/12 11:49:10;;;;;;;42.00;15.50;;;;;;;-3.82;67.20;101237.81;105913;1254;60449;-69
2023/01/12 11:51:37;;;;;;;34.10;13.90;;;;;;;-3.83;67.19;101238.34;105702;1257;60449;-70
2023/01/12 11:54:05;;;;;;;34.00;13.60;;;;;;;-3.85;67.07;101236.29;105906;1256;67489;-69
2023/01/12 11:56:47;;;;;;;28.20;12.30;;;;;;;-3.88;67.03;101237.84;109452;1250;69455;-70
2023/01/12 11:59:35;;;;;;;25.60;13.10;;;;;;;-3.92;67.06;101234.61;109509;1250;66081;-70
2023/01/12 12:02:27;;;;;;;32.10;13.80;;;;;;;-3.92;67.04;101242.86;105582;1254;60590;-69
2023/01/12 12:05:23;;;;;;;35.70;14.30;;;;;;;-3.91;67.01;101240.80;105810;1252;60384;-70
2023/01/12 12:07:55;;;;;;;33.70;12.80;;;;;;;-3.89;67.02;101232.17;105446;1251;67408;-69